createdAt,value
2022-12-01T00:03:42.840Z,34.78
2022-12-01T00:09:06.582Z,35.30
2022-12-01T00:14:10.043Z,35.38
2022-12-01T00:19:12.178Z,36.00
2022-12-01T00:24:14.448Z,35.53
2022-12-01T00:29:17.976Z,36.55
2022-12-01T00:34:25.050Z,35.65
2022-12-01T00:39:27.251Z,36.85
2022-12-01T00:44:30.734Z,36.28
2022-12-01T00:49:32.796Z,37.03
2022-12-01T00:54:34.885Z,36.67
2022-12-01T00:59:38.327Z,36.08
2022-12-01T01:04:40.420Z,35.85
2022-12-01T01:09:42.477Z,37.20
2022-12-01T01:14:45.930Z,36.67
2022-12-01T01:19:48.306Z,35.95
2022-12-01T01:24:50.563Z,36.17
2022-12-01T01:29:53.999Z,35.53
2022-12-01T01:34:56.082Z,35.85
2022-12-01T01:39:58.152Z,36.33
2022-12-01T01:45:01.568Z,35.17
2022-12-01T01:50:09.181Z,35.72
2022-12-01T01:55:12.268Z,36.13
2022-12-01T02:00:19.425Z,35.83
2022-12-01T02:05:24.333Z,35.83
2022-12-01T02:10:33.719Z,34.95
2022-12-01T02:15:43.075Z,34.83
2022-12-01T02:21:21.344Z,36.55
2022-12-01T02:26:40.479Z,36.30
2022-12-01T02:31:50.708Z,35.80
2022-12-01T02:36:58.994Z,35.20
2022-12-01T02:42:09.484Z,35.47
2022-12-01T02:47:16.338Z,36.65
2022-12-01T02:52:19.827Z,36.42
2022-12-01T02:57:22.072Z,36.08
2022-12-01T03:02:34.495Z,36.03
2022-12-01T03:07:48.928Z,35.97
2022-12-01T03:13:02.695Z,35.90
2022-12-01T03:18:18.740Z,36.28
2022-12-01T03:23:24.607Z,36.00
2022-12-01T03:28:31.672Z,36.28
2022-12-01T03:33:40.717Z,35.33
2022-12-01T03:38:46.946Z,35.47
2022-12-01T03:43:54.449Z,35.40
2022-12-01T03:48:57.919Z,37.65
2022-12-01T03:54:04.237Z,36.60
2022-12-01T03:59:08.956Z,36.03
2022-12-01T04:04:14.643Z,37.20
2022-12-01T04:09:16.830Z,35.47
2022-12-01T04:14:18.885Z,36.50
2022-12-01T04:19:22.410Z,36.63
2022-12-01T04:24:24.504Z,38.70
2022-12-01T04:29:26.822Z,36.40
2022-12-01T04:34:30.306Z,37.75
2022-12-01T04:39:32.403Z,36.60
2022-12-01T04:44:35.256Z,36.45
2022-12-01T04:49:38.868Z,36.53
2022-12-01T04:54:40.975Z,37.35
2022-12-01T04:59:43.068Z,37.03
2022-12-01T05:04:48.178Z,36.10
2022-12-01T05:09:50.559Z,36.92
2022-12-01T05:14:52.921Z,36.80
2022-12-01T05:20:13.902Z,37.40
2022-12-01T05:25:16.358Z,37.28
2022-12-01T05:30:18.597Z,38.20
2022-12-01T05:35:22.168Z,39.05
2022-12-01T05:40:24.260Z,40.15
2022-12-01T05:45:26.814Z,36.60
2022-12-01T05:50:31.905Z,36.03
2022-12-01T05:55:34.552Z,37.85
2022-12-01T06:00:40.898Z,37.42
2022-12-01T06:05:48.678Z,35.45
2022-12-01T06:10:50.777Z,38.42
2022-12-01T06:15:59.836Z,38.63
2022-12-01T06:21:03.649Z,39.30
2022-12-01T06:26:06.017Z,36.28
2022-12-01T06:31:08.206Z,37.75
2022-12-01T06:36:12.308Z,39.53
2022-12-01T06:41:14.409Z,39.00
2022-12-01T06:46:16.582Z,37.38
2022-12-01T06:51:20.144Z,38.58
2022-12-01T06:56:23.014Z,37.90
2022-12-01T07:01:26.226Z,38.50
2022-12-01T07:06:31.276Z,39.10
2022-12-01T07:11:36.186Z,38.67
2022-12-01T07:16:38.270Z,39.13
2022-12-01T07:21:41.756Z,39.58
2022-12-01T07:26:44.409Z,39.58
2022-12-01T07:31:46.484Z,37.67
2022-12-01T07:36:49.956Z,38.85
2022-12-01T07:41:52.063Z,38.85
2022-12-01T07:46:55.022Z,39.45
2022-12-01T07:51:58.506Z,37.80
2022-12-01T07:57:00.585Z,39.03
2022-12-01T08:02:02.724Z,39.08
2022-12-01T08:07:06.269Z,39.58
2022-12-01T08:12:09.489Z,38.25
2022-12-01T08:17:11.577Z,37.97
2022-12-01T08:22:15.025Z,38.30
2022-12-01T08:27:17.129Z,39.28
2022-12-01T08:32:19.533Z,37.28
2022-12-01T08:37:23.045Z,38.58
2022-12-01T08:42:25.184Z,38.72
2022-12-01T08:47:29.292Z,38.65
2022-12-01T08:52:34.384Z,39.38
2022-12-01T08:57:36.465Z,39.22
2022-12-01T09:02:38.618Z,39.83
2022-12-01T09:07:42.939Z,40.55
2022-12-01T09:12:45.025Z,41.75
2022-12-01T09:17:47.101Z,40.95
2022-12-01T09:22:50.534Z,39.53
2022-12-01T09:27:52.717Z,38.55
2022-12-01T09:32:54.779Z,38.72
2022-12-01T09:37:58.724Z,40.08
2022-12-01T09:43:04.022Z,37.88
2022-12-01T09:48:07.470Z,39.45
2022-12-01T09:53:22.384Z,39.13
2022-12-01T09:58:29.674Z,40.03
2022-12-01T10:03:36.952Z,40.15
2022-12-01T10:08:44.150Z,38.78
2022-12-01T10:13:46.253Z,40.72
2022-12-01T10:18:56.378Z,38.35
2022-12-01T10:24:13.907Z,39.22
2022-12-01T10:29:27.822Z,39.33
2022-12-01T10:34:33.266Z,38.72
2022-12-01T10:39:39.973Z,39.38
2022-12-01T10:44:46.376Z,41.47
2022-12-01T10:49:49.003Z,38.75
2022-12-01T10:54:52.799Z,38.90
2022-12-01T10:59:58.478Z,37.90
2022-12-01T11:05:03.927Z,37.47
2022-12-01T11:10:16.969Z,37.25
2022-12-01T11:15:22.833Z,37.60
2022-12-01T11:20:31.940Z,37.33
2022-12-01T11:25:35.792Z,38.50
2022-12-01T11:30:37.932Z,37.95
2022-12-01T11:35:46.783Z,38.20
2022-12-01T11:40:52.209Z,37.50
2022-12-01T11:45:55.870Z,37.45
2022-12-01T11:51:08.510Z,45.30
2022-12-01T11:56:23.836Z,37.22
2022-12-01T12:01:39.836Z,37.63
2022-12-01T12:06:57.067Z,37.20
2022-12-01T12:12:07.561Z,36.40
2022-12-01T12:17:27.947Z,35.95
2022-12-01T12:22:41.957Z,36.38
2022-12-01T12:27:54.887Z,36.88
2022-12-01T12:33:34.819Z,36.22
2022-12-01T12:38:47.862Z,36.65
2022-12-01T12:44:09.366Z,36.88
2022-12-01T12:49:34.016Z,35.90
2022-12-01T12:54:44.453Z,36.60
2022-12-01T12:59:53.172Z,36.60
2022-12-01T13:05:00.667Z,36.47
2022-12-01T13:10:09.970Z,35.70
2022-12-01T13:15:19.591Z,37.25
2022-12-01T13:20:27.699Z,34.90
2022-12-01T13:25:35.424Z,36.08
2022-12-01T13:30:39.765Z,35.17
2022-12-01T13:35:44.716Z,35.92
2022-12-01T13:40:48.099Z,34.72
2022-12-01T13:45:52.601Z,33.58
2022-12-01T13:51:00.739Z,33.88
2022-12-01T13:56:26.345Z,34.50
2022-12-01T14:01:49.128Z,34.50
2022-12-01T14:07:11.877Z,34.10
2022-12-01T14:12:19.735Z,32.20
2022-12-01T14:17:29.796Z,33.70
2022-12-01T14:22:35.341Z,33.85
2022-12-01T14:27:39.499Z,34.58
2022-12-01T14:32:42.968Z,34.53
2022-12-01T14:37:49.449Z,33.88
2022-12-01T14:43:13.253Z,35.25
2022-12-01T14:48:21.182Z,32.85
2022-12-01T14:53:26.852Z,32.65
2022-12-01T14:58:30.446Z,33.70
2022-12-01T15:03:38.605Z,32.13
2022-12-01T15:08:49.667Z,31.77
2022-12-01T15:13:57.059Z,33.22
2022-12-01T15:19:00.530Z,32.53
2022-12-01T15:24:05.432Z,31.48
2022-12-01T15:29:16.553Z,19.83
2022-12-01T15:34:24.525Z,32.45
2022-12-01T15:39:32.569Z,31.95
2022-12-01T15:44:36.856Z,31.35
2022-12-01T15:49:50.283Z,30.13
2022-12-01T15:54:52.858Z,31.20
2022-12-01T15:59:56.873Z,31.80
2022-12-01T16:05:07.437Z,31.02
2022-12-01T16:10:31.785Z,32.78
2022-12-01T16:15:43.972Z,32.08
2022-12-01T16:20:47.835Z,31.67
2022-12-01T16:25:50.607Z,29.75
2022-12-01T16:30:54.256Z,30.52
2022-12-01T16:36:01.407Z,31.23
2022-12-01T16:41:15.660Z,32.40
2022-12-01T16:46:26.467Z,31.70
2022-12-01T16:51:54.423Z,32.90
2022-12-01T16:56:53.622Z,34.13
2022-12-01T17:01:56.896Z,32.42
2022-12-01T17:07:02.031Z,32.53
2022-12-01T17:12:04.744Z,32.58
2022-12-01T17:17:13.489Z,33.25
2022-12-01T17:22:17.822Z,33.38
2022-12-01T17:27:20.513Z,32.20
2022-12-01T17:32:22.859Z,33.28
2022-12-01T17:37:28.614Z,34.80
2022-12-01T17:42:32.886Z,34.03
2022-12-01T17:47:35.578Z,35.42
2022-12-01T17:52:42.278Z,33.88
2022-12-01T17:57:45.418Z,36.83
2022-12-01T18:02:48.139Z,33.35
2022-12-01T18:07:52.202Z,34.97
2022-12-01T18:12:55.772Z,33.60
2022-12-01T18:18:00.018Z,34.33
2022-12-01T18:23:04.735Z,33.60
2022-12-01T18:28:11.119Z,34.90
2022-12-01T18:33:14.349Z,36.03
2022-12-01T18:38:19.194Z,36.75
2022-12-01T18:43:23.280Z,35.38
2022-12-01T18:48:27.541Z,36.25
2022-12-01T18:53:32.537Z,36.17
2022-12-01T18:58:36.314Z,35.47
2022-12-01T19:03:40.017Z,34.35
2022-12-01T19:08:45.546Z,34.10
2022-12-01T19:13:50.120Z,34.50
2022-12-01T19:18:55.213Z,36.10
2022-12-01T19:24:02.115Z,35.95
2022-12-01T19:29:06.495Z,35.60
2022-12-01T19:34:10.607Z,35.38
2022-12-01T19:39:16.731Z,34.60
2022-12-01T19:44:22.338Z,35.80
2022-12-01T19:49:28.348Z,35.47
2022-12-01T19:54:38.521Z,36.00
2022-12-01T19:59:41.639Z,35.00
2022-12-01T20:04:44.939Z,35.03
2022-12-01T20:09:50.814Z,34.88
2022-12-01T20:14:53.792Z,35.22
2022-12-01T20:30:34.378Z,34.35
2022-12-01T20:35:38.579Z,33.20
2022-12-01T20:40:41.575Z,35.78
2022-12-01T20:45:45.972Z,34.47
2022-12-01T20:50:50.678Z,33.28
2022-12-01T20:55:55.375Z,34.65
2022-12-01T21:01:01.143Z,36.75
2022-12-01T21:06:04.008Z,33.25
2022-12-01T21:11:08.958Z,32.38
2022-12-01T21:16:29.008Z,34.25
2022-12-01T21:21:33.048Z,34.05
2022-12-01T21:26:35.530Z,33.88
2022-12-01T21:31:39.478Z,31.88
2022-12-01T21:36:41.552Z,32.20
2022-12-01T21:41:43.640Z,33.67
2022-12-01T21:46:47.949Z,33.65
2022-12-01T21:51:53.772Z,38.17
2022-12-01T21:56:59.213Z,35.08
2022-12-01T22:02:08.821Z,35.05
2022-12-01T22:07:11.268Z,33.58
2022-12-01T22:12:25.535Z,33.50
2022-12-01T22:17:29.388Z,32.80
2022-12-01T22:22:32.800Z,33.25
2022-12-01T22:27:37.281Z,36.20
2022-12-01T22:32:55.933Z,33.25
2022-12-01T22:38:13.967Z,33.63
2022-12-01T22:43:30.614Z,33.42
2022-12-01T22:48:36.908Z,32.95
2022-12-01T22:53:39.005Z,32.10
2022-12-01T22:58:42.434Z,33.50
2022-12-01T23:03:45.890Z,33.00
2022-12-01T23:08:47.982Z,32.47
2022-12-01T23:13:50.086Z,31.52
2022-12-01T23:18:55.318Z,32.60
2022-12-01T23:23:57.381Z,33.45
2022-12-01T23:29:01.402Z,33.00
2022-12-01T23:34:05.842Z,32.72
2022-12-01T23:39:12.873Z,33.85
2022-12-01T23:44:21.584Z,32.15
2022-12-01T23:49:28.645Z,31.88
2022-12-01T23:54:32.396Z,32.28
2022-12-01T23:59:34.497Z,32.42
